Time;durP1;ratioP1;P1;durP2;ratioP2;P2;SDS_P1;SDS_P2;PMS_P1;PMS_P2;Temp;Humidity;BMP_temperature;BMP_pressure;BME280_temperature;BME280_humidity;BME280_pressure;Samples;Min_cycle;Max_cycle;Signal;HPM_P1;HPM_P2
2023/04/21 00:00:56;;;;;;;17.50;9.00;;;3.70;99.90;;;;;;4996572;28;20472;-73
2023/04/21 00:03:23;;;;;;;19.13;7.90;;;3.60;99.90;;;;;;4983499;28;20416;-74
2023/04/21 00:05:49;;;;;;;14.20;6.90;;;3.60;99.90;;;;;;4979993;28;20321;-73
2023/04/21 00:08:16;;;;;;;17.20;8.87;;;3.50;99.90;;;;;;4983390;28;20412;-74
2023/04/21 00:10:42;;;;;;;15.50;7.23;;;3.40;99.90;;;;;;4989731;28;20819;-74
2023/04/21 00:13:08;;;;;;;16.73;7.57;;;3.50;99.90;;;;;;4975668;28;20460;-74
2023/04/21 00:15:34;;;;;;;13.87;6.77;;;3.40;99.90;;;;;;4975917;28;20789;-74
2023/04/21 00:17:59;;;;;;;10.37;6.27;;;3.30;99.90;;;;;;4975868;28;20524;-74
2023/04/21 00:20:27;;;;;;;11.87;7.43;;;3.30;99.90;;;;;;4988128;28;20181;-74
2023/04/21 00:22:53;;;;;;;13.60;7.93;;;3.30;99.90;;;;;;4998628;28;20266;-73
2023/04/21 00:25:19;;;;;;;16.97;8.37;;;3.20;99.90;;;;;;5014267;28;20434;-73
2023/04/21 00:27:45;;;;;;;16.23;7.73;;;3.20;99.90;;;;;;5013897;28;20529;-74
2023/04/21 00:30:11;;;;;;;14.17;7.43;;;3.20;99.90;;;;;;5014300;28;20186;-73
2023/04/21 00:32:36;;;;;;;13.30;7.87;;;3.20;99.90;;;;;;5014396;28;20538;-73
2023/04/21 00:35:02;;;;;;;13.17;6.90;;;3.20;99.90;;;;;;5014654;28;20406;-73
2023/04/21 00:37:28;;;;;;;13.67;7.77;;;3.20;99.90;;;;;;5002954;28;20636;-74
2023/04/21 00:39:53;;;;;;;22.33;7.90;;;3.10;99.90;;;;;;4994869;28;20576;-73
2023/04/21 00:42:19;;;;;;;16.77;8.93;;;3.10;99.90;;;;;;4994476;28;20184;-74
2023/04/21 00:44:45;;;;;;;17.30;8.60;;;3.20;99.90;;;;;;4998946;28;20183;-73
2023/04/21 00:47:11;;;;;;;14.33;7.90;;;3.20;99.90;;;;;;5003324;28;20183;-73
2023/04/21 00:49:36;;;;;;;16.77;7.77;;;3.10;99.90;;;;;;4977061;28;20187;-73
2023/04/21 00:52:04;;;;;;;18.50;8.83;;;3.10;99.90;;;;;;4994195;28;20208;-73
2023/04/21 00:54:31;;;;;;;14.00;7.40;;;3.10;99.90;;;;;;5012989;28;20222;-74
2023/04/21 00:57:00;;;;;;;15.67;7.13;;;3.10;99.90;;;;;;5013832;28;20414;-73
2023/04/21 00:59:26;;;;;;;10.73;6.13;;;3.00;99.90;;;;;;4994605;28;20461;-73
2023/04/21 01:01:52;;;;;;;15.93;7.50;;;3.00;99.90;;;;;;5006912;28;20458;-73
2023/04/21 01:04:17;;;;;;;17.50;7.77;;;2.90;99.90;;;;;;4995177;28;20287;-73
2023/04/21 01:06:43;;;;;;;13.97;7.97;;;2.90;99.90;;;;;;4994804;28;20212;-73
2023/04/21 01:09:11;;;;;;;16.10;7.73;;;2.90;99.90;;;;;;4981516;28;20192;-73
2023/04/21 01:11:37;;;;;;;14.00;7.00;;;2.90;99.90;;;;;;4994084;28;20198;-74
2023/04/21 01:14:04;;;;;;;14.93;7.03;;;2.80;99.90;;;;;;4994306;28;20445;-73
2023/04/21 01:16:32;;;;;;;11.43;7.00;;;2.80;99.90;;;;;;4994476;28;20455;-73
2023/04/21 01:18:58;;;;;;;14.63;8.23;;;2.70;99.90;;;;;;4994143;28;20434;-74
2023/04/21 01:21:25;;;;;;;13.90;9.27;;;2.70;99.90;;;;;;5007617;28;20468;-73
2023/04/21 01:23:52;;;;;;;14.20;8.80;;;2.60;99.90;;;;;;4994330;28;20427;-73
2023/04/21 01:26:21;;;;;;;13.30;7.20;;;2.60;99.90;;;;;;4994361;28;20802;-74
2023/04/21 01:28:47;;;;;;;15.53;9.07;;;2.60;99.90;;;;;;4994107;28;20461;-73
2023/04/21 01:31:17;;;;;;;17.60;8.17;;;2.50;99.90;;;;;;5009115;28;20418;-74
2023/04/21 01:33:43;;;;;;;12.37;7.10;;;2.50;99.90;;;;;;4997958;28;20665;-73
2023/04/21 01:36:09;;;;;;;14.27;6.90;;;2.50;99.90;;;;;;4998091;28;20414;-74
2023/04/21 01:38:40;;;;;;;12.97;7.97;;;2.40;99.90;;;;;;4998032;28;20903;-74
2023/04/21 01:41:07;;;;;;;15.73;8.47;;;2.40;99.90;;;;;;4997580;28;20180;-74
2023/04/21 01:43:32;;;;;;;9.70;6.13;;;2.30;99.90;;;;;;4996889;28;20415;-73
2023/04/21 01:45:58;;;;;;;12.00;6.57;;;2.30;99.90;;;;;;4995610;28;20469;-73
2023/04/21 01:48:23;;;;;;;12.10;5.83;;;2.20;99.90;;;;;;4994389;28;20219;-73
2023/04/21 01:50:49;;;;;;;11.50;8.07;;;2.10;99.90;;;;;;5001936;28;20219;-73
2023/04/21 01:53:15;;;;;;;16.13;8.87;;;2.10;99.90;;;;;;4997051;28;20192;-74
2023/04/21 01:55:40;;;;;;;14.00;7.47;;;2.10;99.90;;;;;;4995346;28;20293;-74
2023/04/21 01:58:06;;;;;;;14.80;7.83;;;2.10;99.90;;;;;;4994158;28;20213;-73
2023/04/21 02:00:32;;;;;;;12.80;7.50;;;2.10;99.90;;;;;;5014899;28;20172;-73
2023/04/21 02:02:57;;;;;;;12.13;6.50;;;2.00;99.90;;;;;;4996663;28;20266;-74
2023/04/21 02:05:23;;;;;;;16.80;7.67;;;2.00;99.90;;;;;;4996744;28;20184;-73
2023/04/21 02:07:48;;;;;;;14.93;7.27;;;2.00;99.90;;;;;;5004870;28;20242;-74
2023/04/21 02:10:15;;;;;;;15.63;7.70;;;1.90;99.90;;;;;;5016057;28;20233;-73
2023/04/21 02:12:40;;;;;;;15.17;7.10;;;1.90;99.90;;;;;;5007756;28;20579;-73
2023/04/21 02:15:07;;;;;;;17.23;6.90;;;1.90;99.90;;;;;;4994832;28;20411;-73
2023/04/21 02:17:32;;;;;;;11.60;6.27;;;1.80;99.90;;;;;;4977266;28;20172;-73
2023/04/21 02:19:58;;;;;;;13.40;5.57;;;1.80;99.90;;;;;;5006782;28;20425;-73
2023/04/21 02:22:23;;;;;;;9.60;5.63;;;1.70;99.90;;;;;;5015850;28;20183;-73
2023/04/21 02:24:49;;;;;;;12.57;5.50;;;1.60;99.90;;;;;;5013815;28;20191;-73
2023/04/21 02:27:15;;;;;;;10.57;5.63;;;1.60;99.90;;;;;;4988075;28;20185;-73
2023/04/21 02:29:41;;;;;;;10.27;5.60;;;1.60;99.90;;;;;;4976681;28;20419;-73
2023/04/21 02:32:07;;;;;;;7.83;4.57;;;1.60;99.90;;;;;;4976794;28;20227;-73
2023/04/21 02:34:33;;;;;;;10.57;4.17;;;1.60;99.90;;;;;;4974091;28;20405;-73
2023/04/21 02:36:58;;;;;;;8.70;5.90;;;1.50;99.90;;;;;;4996517;28;20761;-73
2023/04/21 02:39:24;;;;;;;11.50;5.27;;;1.50;99.90;;;;;;4996391;28;20180;-74
2023/04/21 02:41:50;;;;;;;7.23;4.60;;;1.50;99.90;;;;;;5003529;28;20234;-74
2023/04/21 02:44:15;;;;;;;9.33;4.90;;;1.50;99.90;;;;;;4996139;28;20187;-74
2023/04/21 02:46:42;;;;;;;8.33;4.50;;;1.50;99.90;;;;;;4996210;28;20190;-73
2023/04/21 02:49:08;;;;;;;9.43;4.70;;;1.50;99.90;;;;;;4996220;28;20178;-74
2023/04/21 02:51:34;;;;;;;9.67;4.63;;;1.40;99.90;;;;;;4996072;28;20419;-73
2023/04/21 02:54:00;;;;;;;10.60;4.80;;;1.40;99.90;;;;;;4996158;28;20461;-73
2023/04/21 02:56:25;;;;;;;10.67;5.23;;;1.40;99.90;;;;;;4995803;28;20215;-74
2023/04/21 02:58:51;;;;;;;6.63;3.70;;;1.40;99.90;;;;;;4995275;28;20180;-74
2023/04/21 03:01:16;;;;;;;8.73;4.80;;;1.40;99.90;;;;;;4976645;28;20279;-74
2023/04/21 03:03:42;;;;;;;13.93;6.53;;;1.40;99.90;;;;;;5002922;28;20183;-74
2023/04/21 03:06:08;;;;;;;14.07;6.60;;;1.30;99.90;;;;;;4995894;28;20266;-74
2023/04/21 03:08:33;;;;;;;21.57;6.23;;;1.30;99.90;;;;;;4995998;28;20175;-73
2023/04/21 03:10:59;;;;;;;12.60;6.53;;;1.30;99.90;;;;;;4996020;28;20529;-74
2023/04/21 03:13:25;;;;;;;13.43;6.20;;;1.20;99.90;;;;;;4995384;28;20204;-73
2023/04/21 03:15:51;;;;;;;11.97;6.33;;;1.20;99.90;;;;;;5014918;28;20426;-74
2023/04/21 03:18:16;;;;;;;13.30;6.10;;;1.20;99.90;;;;;;5002440;28;20577;-74
2023/04/21 03:20:42;;;;;;;11.60;6.17;;;1.20;99.90;;;;;;5001383;28;20501;-73
2023/04/21 03:23:08;;;;;;;13.63;7.27;;;1.20;99.90;;;;;;5014913;28;20198;-73
2023/04/21 03:25:34;;;;;;;14.50;7.30;;;1.20;99.90;;;;;;4995581;28;20434;-73
2023/04/21 03:28:00;;;;;;;10.03;6.37;;;1.30;99.90;;;;;;4995621;28;20199;-74
2023/04/21 03:30:25;;;;;;;9.87;4.33;;;1.30;99.90;;;;;;4990370;28;20242;-74
2023/04/21 03:32:51;;;;;;;12.23;5.80;;;1.30;99.90;;;;;;5014636;28;20258;-74
2023/04/21 03:35:17;;;;;;;10.80;5.73;;;1.30;99.90;;;;;;5008649;28;20187;-74
2023/04/21 03:37:43;;;;;;;13.00;6.43;;;1.20;99.90;;;;;;4998834;28;20259;-75
2023/04/21 03:40:09;;;;;;;14.27;6.37;;;1.20;99.90;;;;;;4989551;28;20192;-75
2023/04/21 03:42:35;;;;;;;10.53;6.20;;;1.20;99.90;;;;;;4975365;28;20177;-74
2023/04/21 03:45:05;;;;;;;8.70;5.03;;;1.20;99.90;;;;;;4975231;28;20459;-74
2023/04/21 03:47:30;;;;;;;12.40;5.80;;;1.10;99.90;;;;;;4975154;28;20260;-74
2023/04/21 03:49:56;;;;;;;11.30;6.30;;;1.10;99.90;;;;;;4994058;28;20522;-74
2023/04/21 03:52:22;;;;;;;10.23;5.73;;;1.10;99.90;;;;;;4994254;28;20199;-74
2023/04/21 03:54:48;;;;;;;10.87;6.07;;;1.10;99.90;;;;;;4994570;28;20290;-74
2023/04/21 03:57:14;;;;;;;9.80;5.40;;;1.10;99.90;;;;;;4993908;28;20545;-75
2023/04/21 03:59:40;;;;;;;9.80;5.40;;;1.10;99.90;;;;;;4976403;28;20169;-75
2023/04/21 04:02:06;;;;;;;10.77;6.10;;;1.10;99.90;;;;;;4993678;28;20411;-75
2023/04/21 04:04:32;;;;;;;11.10;6.63;;;1.10;99.90;;;;;;4994220;28;20173;-75
2023/04/21 04:06:58;;;;;;;14.37;6.43;;;1.20;99.90;;;;;;4994210;28;20179;-75
2023/04/21 04:09:23;;;;;;;13.43;7.93;;;1.20;99.90;;;;;;5001152;28;20194;-75
2023/04/21 04:11:49;;;;;;;15.83;7.50;;;1.20;99.90;;;;;;5013483;28;20199;-75
2023/04/21 04:14:15;;;;;;;11.00;6.60;;;1.20;99.90;;;;;;4993991;28;20661;-75
2023/04/21 04:16:41;;;;;;;13.93;7.03;;;1.20;99.90;;;;;;5007614;28;20222;-75
2023/04/21 04:19:07;;;;;;;13.50;7.70;;;1.20;99.90;;;;;;5013913;28;20188;-75
2023/04/21 04:21:33;;;;;;;15.30;7.20;;;1.20;99.90;;;;;;5013680;28;20172;-75
2023/04/21 04:23:59;;;;;;;14.67;5.70;;;1.30;99.90;;;;;;5013739;28;20410;-75
2023/04/21 04:26:25;;;;;;;13.23;6.80;;;1.30;99.90;;;;;;5000366;28;20427;-75
2023/04/21 04:28:52;;;;;;;10.80;6.43;;;1.30;99.90;;;;;;4987482;28;20416;-75
2023/04/21 04:31:18;;;;;;;11.03;6.37;;;1.40;99.90;;;;;;4974568;28;20419;-75
2023/04/21 04:33:44;;;;;;;12.37;6.80;;;1.40;99.90;;;;;;4993629;28;20463;-75
2023/04/21 04:36:12;;;;;;;11.77;6.47;;;1.40;99.90;;;;;;4993819;28;20880;-75
2023/04/21 04:38:39;;;;;;;15.00;8.27;;;1.40;99.90;;;;;;4981448;28;20208;-75
2023/04/21 04:41:05;;;;;;;19.80;9.30;;;1.40;99.90;;;;;;4980462;28;20431;-75
2023/04/21 04:43:35;;;;;;;14.13;7.30;;;1.40;99.90;;;;;;4987356;28;21129;-75
2023/04/21 04:46:03;;;;;;;9.97;5.93;;;1.50;99.90;;;;;;4992691;28;20422;-75
2023/04/21 04:48:29;;;;;;;12.53;7.20;;;1.50;99.90;;;;;;4981508;28;20419;-75
2023/04/21 04:50:54;;;;;;;14.23;7.80;;;1.50;99.90;;;;;;4993866;28;20418;-75
2023/04/21 04:53:20;;;;;;;24.23;9.20;;;1.50;99.90;;;;;;5002306;28;20549;-75
2023/04/21 04:55:46;;;;;;;15.40;7.93;;;1.50;99.90;;;;;;4997869;28;20266;-75
2023/04/21 04:58:12;;;;;;;11.63;6.30;;;1.50;99.90;;;;;;4993710;28;20529;-74
2023/04/21 05:00:38;;;;;;;22.53;8.50;;;1.50;99.90;;;;;;5002337;28;20405;-74
2023/04/21 05:03:04;;;;;;;13.73;7.50;;;1.50;99.90;;;;;;5013035;28;20266;-75
2023/04/21 05:05:30;;;;;;;15.10;7.07;;;1.50;99.90;;;;;;4997475;28;20210;-75
2023/04/21 05:07:56;;;;;;;15.30;8.40;;;1.50;99.90;;;;;;4993450;28;20461;-75
2023/04/21 05:10:22;;;;;;;12.43;6.27;;;1.60;99.90;;;;;;4992015;28;20187;-75
2023/04/21 05:12:48;;;;;;;17.23;6.60;;;1.60;99.90;;;;;;4993406;28;20453;-75
2023/04/21 05:15:13;;;;;;;14.47;6.30;;;1.60;99.90;;;;;;4981537;28;20420;-74
2023/04/21 05:17:39;;;;;;;17.03;7.73;;;1.70;99.90;;;;;;5013136;28;20171;-74
2023/04/21 05:20:06;;;;;;;9.80;6.37;;;1.80;99.90;;;;;;5012665;28;20217;-75
2023/04/21 05:22:35;;;;;;;15.97;6.07;;;1.80;99.90;;;;;;5003201;28;20180;-75
2023/04/21 05:25:01;;;;;;;15.40;7.03;;;1.90;99.90;;;;;;5005443;28;20441;-76
2023/04/21 05:27:27;;;;;;;12.07;6.33;;;2.00;99.90;;;;;;5011468;28;20756;-76
2023/04/21 05:29:54;;;;;;;15.50;7.07;;;2.10;99.90;;;;;;4996671;28;20469;-76
2023/04/21 05:32:19;;;;;;;13.73;7.00;;;2.30;99.90;;;;;;4991733;28;20231;-75
2023/04/21 05:34:45;;;;;;;12.90;6.63;;;2.40;99.90;;;;;;4987522;28;20936;-75
2023/04/21 05:37:11;;;;;;;14.27;6.73;;;2.50;99.90;;;;;;4997342;28;20184;-75
2023/04/21 05:39:37;;;;;;;10.37;6.40;;;2.60;99.90;;;;;;4987993;28;20180;-77
2023/04/21 05:42:02;;;;;;;13.87;5.93;;;2.60;99.90;;;;;;4984841;28;20211;-75
2023/04/21 05:44:28;;;;;;;11.07;5.93;;;2.60;99.90;;;;;;4991953;28;20669;-76
2023/04/21 05:46:54;;;;;;;11.47;6.60;;;2.60;99.90;;;;;;4984082;28;20467;-76
2023/04/21 05:49:19;;;;;;;11.97;6.97;;;2.60;99.90;;;;;;4972644;28;20192;-75
2023/04/21 05:51:45;;;;;;;16.77;7.67;;;2.60;99.90;;;;;;4981400;28;20180;-74
2023/04/21 05:54:11;;;;;;;11.37;6.93;;;2.60;99.90;;;;;;4979133;28;20662;-75
2023/04/21 05:56:37;;;;;;;10.30;6.57;;;2.60;99.90;;;;;;4983244;28;20184;-75
2023/04/21 05:59:03;;;;;;;11.80;6.80;;;2.60;99.90;;;;;;4997402;28;20828;-75
2023/04/21 06:01:28;;;;;;;14.20;6.80;;;2.60;99.90;;;;;;4981104;28;20180;-75
2023/04/21 06:03:54;;;;;;;22.73;8.53;;;2.60;99.90;;;;;;4985088;28;20231;-75
2023/04/21 06:06:20;;;;;;;12.97;7.03;;;2.60;99.90;;;;;;4983502;28;20203;-75
2023/04/21 06:08:45;;;;;;;11.97;6.43;;;2.70;99.90;;;;;;4982122;28;20188;-75
2023/04/21 06:11:11;;;;;;;18.90;8.13;;;2.60;99.90;;;;;;4983151;28;20195;-75
2023/04/21 06:13:36;;;;;;;14.30;8.97;;;2.60;99.90;;;;;;4984653;28;20196;-76
2023/04/21 06:16:03;;;;;;;12.93;7.20;;;2.60;99.90;;;;;;4983179;28;20180;-76
2023/04/21 06:18:28;;;;;;;12.20;6.10;;;2.70;99.90;;;;;;4987899;28;20176;-76
2023/04/21 06:20:54;;;;;;;10.40;5.10;;;2.80;99.90;;;;;;4984675;28;20576;-76
2023/04/21 06:23:20;;;;;;;13.00;5.10;;;2.90;99.90;;;;;;4985054;28;20263;-75
2023/04/21 06:25:46;;;;;;;13.90;6.50;;;3.00;99.90;;;;;;4986197;28;20534;-75
2023/04/21 06:28:12;;;;;;;12.67;5.57;;;3.10;99.90;;;;;;4990757;28;20926;-75
2023/04/21 06:30:38;;;;;;;19.90;5.90;;;3.30;99.90;;;;;;4986504;28;20428;-75
2023/04/21 06:33:05;;;;;;;16.17;6.60;;;3.40;99.90;;;;;;4991359;28;20675;-75
2023/04/21 06:35:31;;;;;;;17.80;7.70;;;3.40;99.90;;;;;;4986358;28;20211;-75
2023/04/21 06:37:56;;;;;;;14.53;6.00;;;3.50;99.90;;;;;;4988787;28;20411;-75
2023/04/21 06:40:22;;;;;;;11.00;6.10;;;3.70;99.90;;;;;;4988778;28;20202;-75
2023/04/21 06:42:48;;;;;;;11.77;5.70;;;3.90;99.90;;;;;;4979237;28;20526;-75
2023/04/21 06:45:13;;;;;;;10.73;5.83;;;4.00;99.90;;;;;;4975313;28;20204;-75
2023/04/21 06:47:39;;;;;;;10.93;4.60;;;4.30;99.90;;;;;;4990752;28;20192;-75
2023/04/21 06:50:05;;;;;;;8.23;4.80;;;4.50;99.90;;;;;;5014213;28;20259;-75
2023/04/21 06:52:30;;;;;;;9.60;4.77;;;4.60;99.90;;;;;;4996749;28;20847;-75
2023/04/21 06:54:56;;;;;;;10.90;5.60;;;4.50;99.90;;;;;;4983493;28;20519;-75
2023/04/21 06:57:22;;;;;;;14.30;6.00;;;4.70;99.90;;;;;;4997076;28;20175;-75
2023/04/21 06:59:47;;;;;;;14.13;5.77;;;4.60;99.90;;;;;;4983508;28;20222;-75
2023/04/21 07:02:13;;;;;;;9.83;5.10;;;4.60;99.90;;;;;;4994076;28;20230;-76
2023/04/21 07:04:39;;;;;;;9.67;5.33;;;4.70;99.90;;;;;;4994075;28;20190;-76
2023/04/21 07:07:05;;;;;;;8.00;4.60;;;4.90;99.90;;;;;;4979601;28;20185;-76
2023/04/21 07:09:32;;;;;;;8.60;4.67;;;5.30;99.90;;;;;;4990715;28;20473;-76
2023/04/21 07:11:58;;;;;;;9.17;5.30;;;5.70;99.90;;;;;;4984052;28;20214;-76
2023/04/21 07:14:24;;;;;;;11.43;5.37;;;6.20;99.90;;;;;;4976348;28;20792;-76
2023/04/21 07:16:50;;;;;;;28.63;6.40;;;6.90;99.90;;;;;;4987159;28;20419;-76
2023/04/21 07:19:15;;;;;;;16.20;4.93;;;7.10;99.90;;;;;;4983435;28;20747;-76
2023/04/21 07:21:41;;;;;;;7.80;4.20;;;7.00;99.90;;;;;;4991446;28;20180;-76
2023/04/21 07:24:07;;;;;;;12.73;5.40;;;6.80;99.90;;;;;;4982833;28;20195;-76
2023/04/21 07:26:33;;;;;;;10.47;5.80;;;6.90;99.90;;;;;;4987672;28;20198;-76
2023/04/21 07:28:58;;;;;;;8.80;5.17;;;7.50;99.90;;;;;;4982311;28;20187;-76
2023/04/21 07:31:24;;;;;;;10.13;4.87;;;8.20;99.90;;;;;;4993671;28;20296;-76
2023/04/21 07:33:50;;;;;;;9.37;5.10;;;8.40;99.90;;;;;;4993525;28;20204;-76
2023/04/21 07:36:16;;;;;;;10.87;5.50;;;9.40;99.90;;;;;;4991879;28;20180;-76
2023/04/21 07:38:42;;;;;;;13.80;5.77;;;9.80;99.90;;;;;;4974507;28;20181;-75
2023/04/21 07:41:10;;;;;;;10.40;5.47;;;10.10;99.90;;;;;;4991087;28;20195;-75
2023/04/21 07:43:36;;;;;;;13.00;5.87;;;11.20;99.90;;;;;;4982329;28;20431;-75
2023/04/21 07:46:01;;;;;;;10.27;4.10;;;12.00;99.90;;;;;;4993800;28;20418;-75
2023/04/21 07:48:27;;;;;;;9.03;5.17;;;12.70;99.70;;;;;;4985420;28;20242;-75
2023/04/21 07:50:52;;;;;;;7.93;4.33;;;13.10;97.70;;;;;;4991334;28;20267;-75
2023/04/21 07:53:18;;;;;;;7.10;4.53;;;13.50;97.90;;;;;;4993598;28;20303;-75
2023/04/21 07:55:43;;;;;;;9.60;4.13;;;13.70;96.70;;;;;;4993909;28;20196;-75
2023/04/21 07:58:09;;;;;;;8.67;4.37;;;13.40;97.40;;;;;;4992858;28;20207;-75
2023/04/21 08:00:35;;;;;;;7.67;4.40;;;13.40;97.40;;;;;;4993357;28;20183;-75
2023/04/21 08:03:01;;;;;;;12.33;4.50;;;13.10;98.00;;;;;;4986627;28;20193;-75
2023/04/21 08:05:27;;;;;;;12.97;5.43;;;13.30;98.80;;;;;;4990822;28;20187;-75
2023/04/21 08:07:53;;;;;;;7.53;4.03;;;13.00;98.70;;;;;;4973528;28;20207;-75
2023/04/21 08:10:19;;;;;;;8.57;4.53;;;13.50;98.50;;;;;;4975929;28;20427;-75
2023/04/21 08:12:45;;;;;;;8.23;4.80;;;14.60;96.10;;;;;;4981791;28;20270;-75
2023/04/21 08:15:11;;;;;;;9.30;5.03;;;14.90;95.90;;;;;;4979705;28;20696;-75
2023/04/21 08:17:37;;;;;;;9.23;3.60;;;14.70;95.80;;;;;;4993124;28;20294;-75
2023/04/21 08:20:04;;;;;;;8.63;4.97;;;15.00;95.10;;;;;;4977612;28;20991;-75
2023/04/21 08:22:30;;;;;;;9.07;3.93;;;14.30;96.00;;;;;;4973331;28;20192;-75
2023/04/21 08:24:55;;;;;;;10.53;4.60;;;15.10;94.80;;;;;;4986592;28;20547;-75
2023/04/21 08:27:21;;;;;;;7.27;4.17;;;15.80;93.50;;;;;;4973654;28;20845;-76
2023/04/21 08:29:48;;;;;;;11.10;4.67;;;15.50;94.20;;;;;;4986447;28;20305;-76
2023/04/21 08:32:14;;;;;;;7.83;3.93;;;16.00;93.80;;;;;;4982090;28;20466;-76
2023/04/21 08:34:40;;;;;;;5.03;3.17;;;16.40;92.50;;;;;;4990443;28;21081;-76
2023/04/21 08:37:05;;;;;;;5.50;3.20;;;16.50;92.10;;;;;;4982453;28;20190;-76
2023/04/21 08:39:31;;;;;;;6.90;3.10;;;16.10;92.10;;;;;;4986004;28;20193;-76
2023/04/21 08:41:58;;;;;;;5.73;3.23;;;15.70;93.60;;;;;;4980852;28;20179;-76
2023/04/21 08:44:23;;;;;;;6.70;3.17;;;15.90;92.80;;;;;;4979378;28;20255;-76
2023/04/21 08:46:50;;;;;;;3.80;2.63;;;15.70;91.90;;;;;;4991809;28;20849;-76
2023/04/21 08:49:19;;;;;;;4.23;2.57;;;16.20;92.40;;;;;;4982477;28;20207;-76
2023/04/21 08:51:45;;;;;;;5.60;2.43;;;16.60;91.20;;;;;;4982732;28;20797;-76
2023/04/21 08:54:11;;;;;;;7.50;3.43;;;15.50;93.10;;;;;;4972157;28;20420;-76
2023/04/21 08:56:38;;;;;;;8.03;2.73;;;15.40;93.80;;;;;;4972391;28;20441;-76
2023/04/21 08:59:04;;;;;;;6.33;2.57;;;15.90;92.80;;;;;;4985257;28;20199;-76
2023/04/21 09:01:29;;;;;;;5.50;2.67;;;15.80;91.00;;;;;;4981282;28;20415;-76
2023/04/21 09:04:16;;;;;;;3.67;2.23;;;15.50;92.80;;;;;;4991363;28;20585;-76
2023/04/21 09:06:45;;;;;;;5.73;2.00;;;14.60;94.20;;;;;;4992410;28;20531;-76
2023/04/21 09:09:10;;;;;;;12.07;3.30;;;14.90;94.30;;;;;;4990401;28;20429;-76
2023/04/21 09:11:36;;;;;;;4.73;2.60;;;15.10;93.80;;;;;;4991935;28;20514;-76
2023/04/21 09:14:02;;;;;;;3.50;2.10;;;15.30;93.50;;;;;;4991564;28;20230;-76
2023/04/21 09:16:34;;;;;;;4.10;2.20;;;15.60;93.40;;;;;;4992039;28;20184;-76
2023/04/21 09:19:00;;;;;;;3.77;2.47;;;16.00;93.10;;;;;;4972846;28;20559;-76
2023/04/21 09:21:28;;;;;;;3.37;1.60;;;15.90;93.40;;;;;;4972382;28;20865;-76
2023/04/21 09:23:54;;;;;;;4.67;1.83;;;15.60;93.60;;;;;;4985947;28;20199;-77
2023/04/21 09:26:23;;;;;;;4.17;2.30;;;16.20;92.10;;;;;;4986076;28;20443;-76
2023/04/21 09:28:51;;;;;;;6.80;2.90;;;16.40;91.60;;;;;;4986065;28;20586;-76
2023/04/21 09:31:20;;;;;;;3.67;2.13;;;16.50;91.60;;;;;;4986078;28;20419;-76
2023/04/21 09:33:51;;;;;;;5.20;2.20;;;16.10;92.80;;;;;;4981648;28;20549;-76
2023/04/21 09:36:22;;;;;;;3.70;1.63;;;16.40;91.60;;;;;;4993051;28;20422;-76
2023/04/21 09:38:56;;;;;;;4.57;2.00;;;16.10;92.00;;;;;;4993111;28;20455;-76
2023/04/21 09:41:22;;;;;;;3.97;2.10;;;15.70;92.50;;;;;;4987094;28;20482;-76
2023/04/21 09:43:48;;;;;;;4.60;2.10;;;15.20;94.20;;;;;;4992935;28;20419;-76
2023/04/21 09:46:17;;;;;;;4.33;2.07;;;15.70;93.40;;;;;;4992799;28;20473;-76
2023/04/21 09:48:45;;;;;;;6.97;2.60;;;15.90;93.10;;;;;;4992484;28;20270;-76
2023/04/21 09:51:12;;;;;;;4.70;2.07;;;16.20;92.30;;;;;;4992611;28;20418;-76
2023/04/21 09:53:42;;;;;;;5.73;1.90;;;16.30;93.10;;;;;;4996784;28;20450;-76
2023/04/21 09:56:14;;;;;;;3.07;1.60;;;16.20;91.40;;;;;;5001093;28;20446;-76
2023/04/21 09:58:47;;;;;;;3.70;1.80;;;16.10;91.60;;;;;;5005236;28;20767;-76
2023/04/21 10:01:14;;;;;;;2.90;1.77;;;15.70;91.90;;;;;;5010109;28;20492;-77
2023/04/21 10:03:42;;;;;;;2.70;1.47;;;14.90;92.80;;;;;;4996259;28;20426;-76
2023/04/21 10:06:08;;;;;;;5.80;2.07;;;14.80;93.20;;;;;;4996664;28;20426;-76
2023/04/21 10:08:35;;;;;;;2.90;1.73;;;14.40;94.50;;;;;;4996404;28;20441;-76
2023/04/21 10:11:01;;;;;;;4.60;1.40;;;14.40;95.10;;;;;;4996340;28;20798;-76
2023/04/21 10:13:27;;;;;;;5.00;1.83;;;14.40;94.50;;;;;;4996086;28;20593;-76
2023/04/21 10:16:07;;;;;;;5.73;1.90;;;14.40;95.60;;;;;;4983012;28;20426;-76
2023/04/21 10:18:37;;;;;;;4.50;1.77;;;14.40;95.40;;;;;;5008779;28;20420;-76
2023/04/21 10:21:11;;;;;;;3.00;1.80;;;14.50;95.40;;;;;;5004348;28;20507;-75
2023/04/21 10:23:43;;;;;;;3.60;2.03;;;14.40;95.00;;;;;;4995807;28;20562;-76
2023/04/21 10:26:09;;;;;;;5.83;2.27;;;14.20;95.70;;;;;;4976120;28;20443;-76
2023/04/21 10:28:51;;;;;;;6.50;1.73;;;14.10;96.00;;;;;;5006412;28;20426;-75
2023/04/21 10:31:20;;;;;;;4.17;1.90;;;14.40;96.30;;;;;;4995615;28;20183;-77
2023/04/21 10:34:04;;;;;;;4.33;1.47;;;14.60;96.00;;;;;;4994692;28;20480;-77
2023/04/21 10:36:30;;;;;;;3.47;1.73;;;14.60;95.10;;;;;;4993650;28;20422;-76
2023/04/21 10:39:02;;;;;;;5.23;2.03;;;14.60;96.20;;;;;;4997909;28;20799;-76
2023/04/21 10:41:28;;;;;;;2.77;1.50;;;14.70;95.30;;;;;;4994739;28;20211;-76
2023/04/21 10:43:59;;;;;;;5.57;2.57;;;14.80;96.20;;;;;;4992638;28;20419;-77
2023/04/21 10:46:39;;;;;;;3.00;2.00;;;15.00;95.90;;;;;;4994774;28;20265;-76
2023/04/21 10:49:25;;;;;;;3.43;2.13;;;15.00;95.40;;;;;;4986407;28;20414;-76
2023/04/21 10:51:57;;;;;;;5.77;2.63;;;14.90;96.50;;;;;;4994130;28;20954;-76
2023/04/21 10:54:27;;;;;;;6.13;2.83;;;15.10;96.50;;;;;;5008045;28;20498;-77
2023/04/21 10:56:54;;;;;;;5.20;2.70;;;15.10;95.30;;;;;;4994742;28;20481;-76
2023/04/21 10:59:21;;;;;;;4.93;2.60;;;15.20;95.30;;;;;;4989363;28;20420;-76
2023/04/21 11:01:46;;;;;;;4.83;2.30;;;15.40;95.90;;;;;;4989145;28;20431;-77
2023/04/21 11:04:20;;;;;;;4.27;2.27;;;15.50;96.00;;;;;;4986683;28;20420;-77
2023/04/21 11:07:08;;;;;;;6.27;2.20;;;15.50;95.00;;;;;;4987427;28;20176;-77
2023/04/21 11:09:34;;;;;;;6.77;2.23;;;15.60;94.90;;;;;;4982886;28;20502;-76
2023/04/21 11:12:03;;;;;;;4.67;2.77;;;15.50;95.80;;;;;;4980007;28;20419;-77
2023/04/21 11:14:30;;;;;;;6.10;2.80;;;15.80;94.70;;;;;;4983184;28;20477;-76
2023/04/21 11:16:55;;;;;;;5.23;2.80;;;15.70;95.40;;;;;;4983577;28;20478;-76
2023/04/21 11:19:24;;;;;;;4.03;2.20;;;15.80;95.60;;;;;;4990454;28;20431;-76
2023/04/21 11:21:53;;;;;;;7.33;2.50;;;15.60;96.20;;;;;;4990649;28;20658;-76
2023/04/21 11:24:19;;;;;;;6.03;2.80;;;15.70;96.30;;;;;;4993173;28;20521;-76
2023/04/21 11:26:45;;;;;;;6.10;2.77;;;15.90;96.80;;;;;;4990570;28;20429;-76
2023/04/21 11:29:11;;;;;;;4.53;2.83;;;15.90;95.70;;;;;;4990886;28;20419;-77
2023/04/21 11:31:39;;;;;;;5.93;3.07;;;16.00;95.50;;;;;;4989072;28;20195;-77
2023/04/21 11:34:05;;;;;;;6.97;3.57;;;16.10;95.30;;;;;;4992476;28;20687;-77
2023/04/21 11:36:39;;;;;;;6.40;3.20;;;16.20;96.40;;;;;;4993409;28;20444;-76
2023/04/21 11:39:08;;;;;;;4.77;2.77;;;16.20;96.00;;;;;;4995910;28;20445;-77
2023/04/21 11:41:37;;;;;;;4.13;2.50;;;16.20;95.50;;;;;;4999147;28;20737;-76
2023/04/21 11:44:03;;;;;;;5.83;3.20;;;16.10;96.60;;;;;;4996312;28;20434;-77
2023/04/21 11:46:29;;;;;;;5.53;3.13;;;16.40;96.00;;;;;;4999495;28;21054;-77
2023/04/21 11:49:10;;;;;;;5.80;2.50;;;16.70;96.00;;;;;;5012864;28;20190;-77
2023/04/21 11:51:38;;;;;;;5.67;3.80;;;16.80;95.80;;;;;;4986198;28;20266;-77
2023/04/21 11:54:05;;;;;;;5.63;2.83;;;16.50;95.40;;;;;;5007430;28;20501;-76
2023/04/21 11:56:41;;;;;;;5.50;3.40;;;16.70;95.20;;;;;;5004196;28;20426;-77
2023/04/21 11:59:12;;;;;;;5.83;2.93;;;16.90;94.70;;;;;;5008888;28;20441;-77
2023/04/21 12:01:44;;;;;;;6.37;2.87;;;16.70;95.20;;;;;;5012423;28;20472;-77
2023/04/21 12:04:15;;;;;;;5.97;2.90;;;16.90;95.70;;;;;;5011889;28;20923;-76
2023/04/21 12:06:42;;;;;;;6.90;3.50;;;17.00;96.60;;;;;;4998949;28;20427;-76
2023/04/21 12:09:08;;;;;;;3.97;2.30;;;17.00;95.10;;;;;;5007673;28;20609;-76
2023/04/21 12:11:34;;;;;;;5.07;2.90;;;17.10;94.90;;;;;;4992535;28;20461;-76
2023/04/21 12:14:00;;;;;;;9.10;3.47;;;17.20;95.40;;;;;;4997658;28;20458;-77
2023/04/21 12:16:28;;;;;;;9.20;2.93;;;17.20;95.30;;;;;;5000389;28;20638;-77
2023/04/21 12:18:55;;;;;;;4.23;2.60;;;17.10;95.20;;;;;;5000945;28;20423;-77
2023/04/21 12:21:20;;;;;;;6.80;3.70;;;17.10;94.60;;;;;;4997077;28;20753;-76
2023/04/21 12:23:46;;;;;;;10.40;3.83;;;17.20;95.40;;;;;;5011908;28;20862;-76
2023/04/21 12:26:12;;;;;;;9.33;3.60;;;17.20;95.20;;;;;;5012407;28;20199;-77
2023/04/21 12:28:38;;;;;;;5.77;3.00;;;17.20;94.90;;;;;;5006976;28;20277;-76
2023/04/21 12:31:05;;;;;;;5.17;2.90;;;17.10;95.90;;;;;;5004223;28;20190;-77
2023/04/21 12:33:30;;;;;;;6.40;3.87;;;17.30;96.00;;;;;;4993508;28;20473;-77
2023/04/21 12:35:56;;;;;;;7.33;2.97;;;17.30;95.30;;;;;;4999044;28;20963;-76
2023/04/21 12:38:22;;;;;;;4.83;2.50;;;17.60;94.90;;;;;;5010371;28;20568;-76
2023/04/21 12:40:48;;;;;;;9.83;3.10;;;17.60;94.00;;;;;;5006420;28;20183;-76
2023/04/21 12:43:13;;;;;;;4.30;2.47;;;17.70;94.90;;;;;;4996107;28;20652;-76
2023/04/21 12:45:39;;;;;;;9.80;3.23;;;17.70;95.10;;;;;;4993094;28;20183;-76